Roma, Italy

04:54 AM CEST die 22o April, anno 2018 (GMT +0200)
Albano Laziale | | Change Station

Elev 1476 ft 41.73 °N, 12.67 °E | Updated 13 minutes ago

Caligo
Caligo
60.1 °F
Feels Like 60.1 °F
N
0.0
Ventus Variabilis Ventus from Magis Eurus quam Auster
Gusts 5.0 mph

Hodie
High -- | Low -- °F
--% Chance of Precip.
Yesterday
High -- | Low -- °F
Precip. -- in
Pressio 30.06 in
Visibilitas 0.6 milia passuum
Clouds
Frigus in quo Ros apparet 47 °F
Umor 63%
Rainfall 0.00 in
Snow Depth Not available.
6:18 AM 7:57 PM
Waxing Crescent, 41% visible
METAR LIRA 220220Z VRB02KT 1000 R15/0275N BR NSC 14/13 Q1018
Pressio 30.06 in
Visibilitas 0.6 milia passuum
Clouds
Frigus in quo Ros apparet 47 °F
Umor 63%
Rainfall 0.00 in
Snow Depth Not available.
6:18 AM 7:57 PM
Waxing Crescent, 41% visible
METAR LIRA 220220Z VRB02KT 1000 R15/0275N BR NSC 14/13 Q1018

Get Severe Weather Alerts

Thanks for signing up!

Be on the lookout for a verification email in your inbox.

You'll start receiving the daily forecast at 6 AM.

×

10-Day Weather Forecast

×

Almanac

Astronomy

Apr. 22, 2018 Rise Set
Actual Time
Civil Twilight
Nautical Twilight
Astronomical Twilight
Moon
Length Of Visible Light
Length of Day
Tomorrow will be .
, % of the Moon is Illuminated

Today's Extremes

Country Highs Country Lows

Community

WunderPhotos

Category 6

Welcome to Category 6. This is the collective home for Weather Underground's featured writeups by Dr. Jeff Masters (right), Bob Henson (left), Chris Burt, and other regular contributors.

Nearby

Air Quality

  Air Quality AQ Index Pollutant
Not available.

Snow Depth

Station Depth Elevation

Earthquake Activity

City Distance Mag. Time & Date
Minimum magnitude displayed is 2.5.

Coastal Water Temperatures

Locus Calor

Stations

Nearby Weather Stations

Station Location Temp Frigus Venti Frigus in quo Ros apparet Umor Ventus Precip. Elev Renovata Type